createdAt,value
2022-10-05T00:00:27.502Z,97448.72
2022-10-05T00:02:54.271Z,97447.09
2022-10-05T00:05:26.059Z,97438.88
2022-10-05T00:07:52.808Z,97433.97
2022-10-05T00:10:19.547Z,97430.38
2022-10-05T00:12:46.594Z,97424.09
2022-10-05T00:15:13.721Z,97428.94
2022-10-05T00:17:40.686Z,97427.25
2022-10-05T00:20:17.779Z,97430.38
2022-10-05T00:22:44.255Z,97431.06
2022-10-05T00:25:12.272Z,97428.44
2022-10-05T00:27:39.008Z,97432.44
2022-10-05T00:30:16.289Z,97424.06
2022-10-05T00:32:42.818Z,97423.16
2022-10-05T00:35:09.800Z,97408.50
2022-10-05T00:37:36.320Z,97404.59
2022-10-05T00:40:03.506Z,97410.09
2022-10-05T00:42:34.668Z,97399.22
2022-10-05T00:45:07.858Z,97395.59
2022-10-05T00:47:46.458Z,97395.69
2022-10-05T00:50:20.409Z,97390.50
2022-10-05T00:53:10.110Z,97390.00
2022-10-05T00:55:39.679Z,97385.41
2022-10-05T00:58:24.955Z,97387.84
2022-10-05T01:00:55.235Z,97393.41
2022-10-05T01:03:21.856Z,97393.03
2022-10-05T01:05:51.273Z,97383.59
2022-10-05T01:08:27.052Z,97394.97
2022-10-05T01:11:14.685Z,97393.13
2022-10-05T01:13:46.937Z,97401.59
2022-10-05T01:16:22.505Z,97400.22
2022-10-05T01:19:07.810Z,97400.56
2022-10-05T01:21:37.044Z,97402.09
2022-10-05T01:24:14.868Z,97416.63
2022-10-05T01:26:47.613Z,97418.69
2022-10-05T01:29:17.294Z,97415.72
2022-10-05T01:31:43.787Z,97402.53
2022-10-05T01:34:12.535Z,97410.84
2022-10-05T01:36:44.908Z,97405.91
2022-10-05T01:39:25.735Z,97411.66
2022-10-05T01:42:01.374Z,97409.13
2022-10-05T01:44:37.802Z,97412.59
2022-10-05T01:47:08.363Z,97404.44
2022-10-05T01:49:38.739Z,97394.91
2022-10-05T01:52:05.171Z,97391.63
2022-10-05T01:54:40.386Z,97386.25
2022-10-05T01:57:13.778Z,97387.53
2022-10-05T01:59:40.173Z,97387.50
2022-10-05T02:02:08.039Z,97386.59
2022-10-05T02:05:03.920Z,97386.41
2022-10-05T02:07:50.621Z,97379.22
2022-10-05T02:10:22.204Z,97371.03
2022-10-05T02:12:49.149Z,97368.44
2022-10-05T02:15:17.538Z,97371.34
2022-10-05T02:17:48.838Z,97369.88
2022-10-05T02:20:17.409Z,97362.88
2022-10-05T02:22:45.175Z,97366.63
2022-10-05T02:25:15.916Z,97367.16
2022-10-05T02:28:02.655Z,97362.34
2022-10-05T02:30:29.549Z,97358.63
2022-10-05T02:33:03.205Z,97358.50
2022-10-05T02:35:29.698Z,97360.84
2022-10-05T02:38:02.351Z,97353.69
2022-10-05T02:40:32.571Z,97344.78
2022-10-05T02:43:08.114Z,97331.50
2022-10-05T02:45:37.678Z,97315.69
2022-10-05T02:48:13.427Z,97312.16
2022-10-05T02:50:48.662Z,97314.06
2022-10-05T02:53:21.324Z,97312.16
2022-10-05T02:55:56.982Z,97327.28
2022-10-05T02:58:23.951Z,97321.25
2022-10-05T03:00:51.028Z,97331.50
2022-10-05T03:03:24.971Z,97331.97
2022-10-05T03:05:53.571Z,97333.09
2022-10-05T03:08:22.256Z,97338.25
2022-10-05T03:11:07.671Z,97340.13
2022-10-05T03:13:37.407Z,97331.34
2022-10-05T03:16:10.012Z,97332.41
2022-10-05T03:18:36.496Z,97334.09
2022-10-05T03:21:02.864Z,97326.88
2022-10-05T03:23:35.824Z,97328.69
2022-10-05T03:26:06.107Z,97331.50
2022-10-05T03:28:42.856Z,97328.53
2022-10-05T03:31:15.141Z,97324.59
2022-10-05T03:33:50.665Z,97323.28
2022-10-05T03:36:17.105Z,97329.22
2022-10-05T03:39:06.804Z,97316.91
2022-10-05T03:42:05.662Z,97312.88
2022-10-05T03:44:32.104Z,97317.06
2022-10-05T03:47:01.729Z,97318.28
2022-10-05T03:49:43.639Z,97324.06
2022-10-05T03:52:12.818Z,97315.84
2022-10-05T03:55:08.689Z,97319.66
2022-10-05T03:57:35.864Z,97316.69
2022-10-05T04:00:05.545Z,97313.28
2022-10-05T04:02:41.292Z,97309.69
2022-10-05T04:05:10.823Z,97304.25
2022-10-05T04:07:39.890Z,97296.03
2022-10-05T04:10:09.776Z,97297.34
2022-10-05T04:12:37.300Z,97289.28
2022-10-05T04:15:05.144Z,97285.81
2022-10-05T04:17:33.079Z,97278.19
2022-10-05T04:20:03.596Z,97266.66
2022-10-05T04:22:43.235Z,97264.69
2022-10-05T04:25:21.589Z,97271.56
2022-10-05T04:27:50.959Z,97272.59
2022-10-05T04:30:22.216Z,97283.09
2022-10-05T04:32:52.658Z,97277.00
2022-10-05T04:35:31.370Z,97277.00
2022-10-05T04:38:07.074Z,97283.41
2022-10-05T04:40:45.688Z,97280.59
2022-10-05T04:43:19.035Z,97265.31
2022-10-05T04:45:51.746Z,97271.56
2022-10-05T04:48:33.551Z,97274.53
2022-10-05T04:50:59.997Z,97273.69
2022-10-05T04:53:31.568Z,97271.03
2022-10-05T04:55:59.680Z,97272.59
2022-10-05T04:58:32.266Z,97290.38
2022-10-05T05:01:17.376Z,97279.56
2022-10-05T05:03:56.087Z,97284.72
2022-10-05T05:06:28.747Z,97289.81
2022-10-05T05:09:01.393Z,97286.69
2022-10-05T05:11:46.534Z,97292.25
2022-10-05T05:14:16.764Z,97294.09
2022-10-05T05:16:43.806Z,97300.75
2022-10-05T05:19:31.663Z,97296.47
2022-10-05T05:22:27.478Z,97299.66
2022-10-05T05:24:56.740Z,97298.00
2022-10-05T05:27:26.300Z,97299.19
2022-10-05T05:30:16.002Z,97298.25
2022-10-05T05:33:08.704Z,97302.50
2022-10-05T05:35:35.112Z,97303.88
2022-10-05T05:38:04.582Z,97308.31
2022-10-05T05:40:33.343Z,97306.50
2022-10-05T05:43:01.048Z,97297.59
2022-10-05T05:45:27.449Z,97308.16
2022-10-05T05:47:54.369Z,97301.69
2022-10-05T05:50:20.808Z,97305.97
2022-10-05T05:52:49.179Z,97301.88
2022-10-05T05:55:30.535Z,97303.50
2022-10-05T05:57:57.154Z,97301.50
2022-10-05T06:00:25.013Z,97309.41
2022-10-05T06:02:57.435Z,97299.50
2022-10-05T06:05:25.070Z,97305.56
2022-10-05T06:07:51.615Z,97311.28
2022-10-05T06:10:38.322Z,97319.78
2022-10-05T06:13:16.807Z,97311.97
2022-10-05T06:15:48.227Z,97317.50
2022-10-05T06:18:15.913Z,97314.44
2022-10-05T06:21:01.077Z,97321.53
2022-10-05T06:23:47.762Z,97309.06
2022-10-05T06:26:24.183Z,97316.09
2022-10-05T06:28:58.301Z,97312.91
2022-10-05T06:31:30.992Z,97326.19
2022-10-05T06:34:07.153Z,97318.22
2022-10-05T06:36:42.711Z,97330.69
2022-10-05T06:39:21.407Z,97320.19
2022-10-05T06:41:47.835Z,97330.50
2022-10-05T06:44:19.978Z,97325.09
2022-10-05T06:47:00.920Z,97320.13
2022-10-05T06:49:27.333Z,97317.34
2022-10-05T06:51:58.503Z,97315.78
2022-10-05T06:54:31.038Z,97314.13
2022-10-05T06:57:01.295Z,97320.94
2022-10-05T06:59:46.089Z,97306.59
2022-10-05T07:02:15.900Z,97314.56
2022-10-05T07:04:45.412Z,97323.97
2022-10-05T07:07:18.535Z,97317.13
2022-10-05T07:09:48.006Z,97321.72
2022-10-05T07:12:41.415Z,97312.63
2022-10-05T07:15:26.668Z,97311.56
2022-10-05T07:18:02.663Z,97306.94
2022-10-05T07:20:49.010Z,97311.09
2022-10-05T07:23:22.237Z,97298.50
2022-10-05T07:25:49.278Z,97306.44
2022-10-05T07:28:21.891Z,97306.69
2022-10-05T07:31:04.187Z,97309.56
2022-10-05T07:33:33.656Z,97311.22
2022-10-05T07:36:21.909Z,97308.41
2022-10-05T07:38:48.334Z,97306.38
2022-10-05T07:41:19.340Z,97311.25
2022-10-05T07:44:01.488Z,97312.94
2022-10-05T07:46:28.760Z,97310.91
2022-10-05T07:49:15.412Z,97315.44
2022-10-05T07:51:45.101Z,97311.16
2022-10-05T07:54:25.391Z,97312.78
2022-10-05T07:56:56.075Z,97313.22
2022-10-05T07:59:25.425Z,97322.28
2022-10-05T08:01:54.787Z,97322.56
2022-10-05T08:04:25.401Z,97320.28
2022-10-05T08:06:51.894Z,97329.28
2022-10-05T08:09:18.299Z,97324.84
2022-10-05T08:11:56.621Z,97326.31
2022-10-05T08:14:43.014Z,97323.81
2022-10-05T08:17:16.453Z,97331.63
2022-10-05T08:19:55.559Z,97328.78
2022-10-05T08:22:23.824Z,97325.94
2022-10-05T08:25:10.728Z,97322.53
2022-10-05T08:27:40.587Z,97336.00
2022-10-05T08:30:10.653Z,97337.00
2022-10-05T08:32:37.080Z,97336.81
2022-10-05T08:35:22.238Z,97330.13
2022-10-05T08:37:48.687Z,97324.81
2022-10-05T08:40:15.158Z,97322.38
2022-10-05T08:43:00.841Z,97322.03
2022-10-05T08:45:46.135Z,97326.75
2022-10-05T08:48:12.592Z,97328.25
2022-10-05T08:50:57.785Z,97341.75
2022-10-05T08:53:33.483Z,97342.03
2022-10-05T08:56:20.839Z,97350.19
2022-10-05T08:59:06.704Z,97349.72
2022-10-05T09:01:36.291Z,97341.00
2022-10-05T09:04:05.845Z,97347.34
2022-10-05T09:06:38.530Z,97357.13
2022-10-05T09:09:10.767Z,97346.94
2022-10-05T09:12:00.573Z,97352.84
2022-10-05T09:14:52.450Z,97351.66
2022-10-05T09:17:28.407Z,97348.00
2022-10-05T09:20:10.863Z,97344.94
2022-10-05T09:23:09.930Z,97351.50
2022-10-05T09:25:46.276Z,97354.16
2022-10-05T09:28:25.180Z,97355.56
2022-10-05T09:31:06.988Z,97347.81
2022-10-05T09:33:39.662Z,97351.47
2022-10-05T09:36:09.166Z,97352.09
2022-10-05T09:38:45.581Z,97349.03
2022-10-05T09:41:12.031Z,97344.91
2022-10-05T09:43:48.890Z,97348.81
2022-10-05T09:46:20.235Z,97341.59
2022-10-05T09:48:56.541Z,97341.94
2022-10-05T09:51:41.821Z,97333.91
2022-10-05T09:54:08.310Z,97331.47
2022-10-05T09:56:34.938Z,97336.94
2022-10-05T09:59:07.759Z,97317.66
2022-10-05T10:01:38.088Z,97319.56
2022-10-05T10:04:20.386Z,97318.72
2022-10-05T10:06:52.980Z,97312.06
2022-10-05T10:09:19.445Z,97312.44
2022-10-05T10:11:46.145Z,97306.44
2022-10-05T10:14:18.821Z,97307.84
2022-10-05T10:17:04.083Z,97311.09
2022-10-05T10:19:41.678Z,97308.72
2022-10-05T10:22:26.899Z,97300.72
2022-10-05T10:25:02.330Z,97297.19
2022-10-05T10:27:52.232Z,97304.03
2022-10-05T10:30:27.419Z,97312.81
2022-10-05T10:32:59.577Z,97299.53
2022-10-05T10:35:35.971Z,97304.56
2022-10-05T10:38:14.696Z,97298.22
2022-10-05T10:40:59.881Z,97300.38
2022-10-05T10:43:55.797Z,97310.34
2022-10-05T10:46:41.002Z,97304.41
2022-10-05T10:49:07.446Z,97299.66
2022-10-05T10:51:47.479Z,97300.72
2022-10-05T10:54:23.373Z,97298.56
2022-10-05T10:57:19.347Z,97287.66
2022-10-05T11:00:04.661Z,97283.22
2022-10-05T11:02:50.036Z,97281.78
2022-10-05T11:05:19.498Z,97274.44
2022-10-05T11:07:45.902Z,97283.00
2022-10-05T11:10:12.340Z,97293.34
2022-10-05T11:12:58.562Z,97281.31
2022-10-05T11:15:24.991Z,97288.72
2022-10-05T11:17:51.423Z,97292.22
2022-10-05T11:20:27.998Z,97281.75
2022-10-05T11:23:06.625Z,97274.00
2022-10-05T11:25:45.929Z,97280.81
2022-10-05T11:28:31.210Z,97268.66
2022-10-05T11:30:57.641Z,97252.94
2022-10-05T11:33:24.415Z,97252.88
2022-10-05T11:36:10.030Z,97254.84
2022-10-05T11:38:55.137Z,97242.66
2022-10-05T11:41:24.558Z,97238.53
2022-10-05T11:44:09.630Z,97229.97
2022-10-05T11:46:49.169Z,97226.16
2022-10-05T11:49:19.512Z,97224.75
2022-10-05T11:51:46.233Z,97214.47
2022-10-05T11:54:17.496Z,97202.19
2022-10-05T11:56:49.543Z,97197.22
2022-10-05T11:59:34.690Z,97198.53
2022-10-05T12:02:01.081Z,97193.25
2022-10-05T12:04:30.507Z,97190.88
2022-10-05T12:07:00.185Z,97184.09
2022-10-05T12:09:33.430Z,97176.56
2022-10-05T12:12:05.980Z,97176.28
2022-10-05T12:14:33.602Z,97161.00
2022-10-05T12:17:18.771Z,97162.88
2022-10-05T12:19:46.107Z,97150.22
2022-10-05T12:22:15.423Z,97148.00
2022-10-05T12:24:44.618Z,97140.34
2022-10-05T12:27:15.891Z,97141.25
2022-10-05T12:29:42.317Z,97146.03
2022-10-05T12:32:24.786Z,97143.88
2022-10-05T12:35:30.061Z,97120.84
2022-10-05T12:38:30.352Z,97125.72
2022-10-05T12:41:09.380Z,97114.22
2022-10-05T12:43:35.804Z,97118.56
2022-10-05T12:46:17.810Z,97110.00
2022-10-05T12:48:56.581Z,97108.50
2022-10-05T12:51:27.386Z,97102.16
2022-10-05T12:54:02.887Z,97100.09
2022-10-05T12:56:31.802Z,97098.84
2022-10-05T12:59:17.677Z,97112.75
2022-10-05T13:02:02.429Z,97090.44
2022-10-05T13:04:31.982Z,97093.56
2022-10-05T13:07:04.511Z,97088.66
2022-10-05T13:09:40.591Z,97093.19
2022-10-05T13:12:19.081Z,97083.53
2022-10-05T13:14:45.489Z,97078.81
2022-10-05T13:17:30.818Z,97081.59
2022-10-05T13:19:57.772Z,97067.41
2022-10-05T13:22:24.184Z,97071.97
2022-10-05T13:24:52.453Z,97061.81
2022-10-05T13:27:32.147Z,97061.03
2022-10-05T13:30:02.794Z,97058.13
2022-10-05T13:32:34.501Z,97062.03
2022-10-05T13:35:11.357Z,97057.91
2022-10-05T13:37:41.203Z,97072.41
2022-10-05T13:40:07.625Z,97055.06
2022-10-05T13:42:37.719Z,97057.50
2022-10-05T13:45:12.399Z,97050.09
2022-10-05T13:47:41.933Z,97042.16
2022-10-05T13:50:19.529Z,97040.56
2022-10-05T13:52:45.887Z,97045.41
2022-10-05T13:55:12.293Z,97047.53
2022-10-05T13:57:45.026Z,97044.38
2022-10-05T14:00:16.604Z,97037.88
2022-10-05T14:02:43.755Z,97034.16
2022-10-05T14:05:16.306Z,97049.34
2022-10-05T14:08:06.041Z,97040.81
2022-10-05T14:10:33.878Z,97037.69
2022-10-05T14:13:01.144Z,97035.09
2022-10-05T14:15:32.257Z,97024.97
2022-10-05T14:17:58.796Z,97035.84
2022-10-05T14:20:26.444Z,97036.47
2022-10-05T14:22:54.903Z,97027.94
2022-10-05T14:25:21.419Z,97022.59
2022-10-05T14:27:49.139Z,97019.97
2022-10-05T14:30:15.542Z,97004.19
2022-10-05T14:32:51.407Z,97004.31
2022-10-05T14:35:20.692Z,97015.16
2022-10-05T14:37:50.389Z,97025.13
2022-10-05T14:40:36.179Z,97003.91
2022-10-05T14:43:17.306Z,97008.47
2022-10-05T14:45:57.133Z,97006.94
2022-10-05T14:48:24.179Z,96995.84
2022-10-05T14:50:55.057Z,97006.63
2022-10-05T14:53:22.704Z,97011.94
2022-10-05T14:55:52.158Z,97001.28
2022-10-05T14:58:37.273Z,97001.03
2022-10-05T15:01:11.271Z,97004.59
2022-10-05T15:03:41.047Z,97006.09
2022-10-05T15:06:09.088Z,97006.78
2022-10-05T15:08:48.518Z,97003.84
2022-10-05T15:11:21.177Z,97010.81
2022-10-05T15:13:48.610Z,97004.47
2022-10-05T15:16:24.820Z,97028.84
2022-10-05T15:18:57.383Z,97021.75
2022-10-05T15:21:24.005Z,97018.47
2022-10-05T15:23:57.651Z,96998.66
2022-10-05T15:26:43.083Z,97009.31
2022-10-05T15:29:09.434Z,97023.69
2022-10-05T15:31:39.787Z,97020.75
2022-10-05T15:34:11.441Z,97033.69
2022-10-05T15:36:41.517Z,97025.28
2022-10-05T15:39:14.420Z,97026.06
2022-10-05T15:41:50.793Z,97031.25
2022-10-05T15:44:25.999Z,97043.16
2022-10-05T15:46:56.448Z,97034.66
2022-10-05T15:49:43.539Z,97039.09
2022-10-05T15:52:33.328Z,97048.44
2022-10-05T15:55:19.453Z,97047.25
2022-10-05T15:57:48.905Z,97045.25
2022-10-05T16:00:19.410Z,97059.78
2022-10-05T16:02:54.652Z,97059.88
2022-10-05T16:05:47.455Z,97052.59
2022-10-05T16:08:55.507Z,97058.69
2022-10-05T16:11:40.703Z,97076.03
2022-10-05T16:14:10.341Z,97079.75
2022-10-05T16:16:42.126Z,97081.38
2022-10-05T16:19:12.530Z,97087.94
2022-10-05T16:21:45.895Z,97104.97
2022-10-05T16:24:31.220Z,97092.72
2022-10-05T16:26:58.739Z,97096.56
2022-10-05T16:29:34.292Z,97103.78
2022-10-05T16:32:03.048Z,97100.31
2022-10-05T16:34:32.495Z,97112.28
2022-10-05T16:36:59.168Z,97113.94
2022-10-05T16:39:44.997Z,97116.91
2022-10-05T16:42:11.939Z,97125.41
2022-10-05T16:44:44.429Z,97129.31
2022-10-05T16:47:29.485Z,97126.50
2022-10-05T16:50:10.165Z,97140.06
2022-10-05T16:52:37.301Z,97138.84
2022-10-05T16:55:04.798Z,97136.31
2022-10-05T16:57:31.581Z,97142.44
2022-10-05T17:00:18.367Z,97144.69
2022-10-05T17:02:57.024Z,97145.28
2022-10-05T17:05:44.146Z,97154.25
2022-10-05T17:08:26.764Z,97155.97
2022-10-05T17:10:53.402Z,97152.31
2022-10-05T17:13:37.406Z,97160.16
2022-10-05T17:16:09.943Z,97161.19
2022-10-05T17:18:55.271Z,97162.59
2022-10-05T17:21:28.535Z,97159.34
2022-10-05T17:23:57.442Z,97156.44
2022-10-05T17:26:32.970Z,97170.31
2022-10-05T17:29:00.516Z,97166.59
2022-10-05T17:31:28.612Z,97171.53
2022-10-05T17:34:23.123Z,97168.22
2022-10-05T17:36:50.511Z,97168.28
2022-10-05T17:39:18.436Z,97177.69
2022-10-05T17:41:44.951Z,97191.09
2022-10-05T17:44:13.295Z,97198.53
2022-10-05T17:46:40.366Z,97188.66
2022-10-05T17:49:18.789Z,97195.28
2022-10-05T17:52:03.867Z,97193.66
2022-10-05T17:54:49.809Z,97204.44
2022-10-05T17:57:16.226Z,97203.63
2022-10-05T17:59:44.587Z,97219.19
2022-10-05T18:02:21.911Z,97223.75
2022-10-05T18:05:16.227Z,97220.94
2022-10-05T18:07:43.252Z,97233.00
2022-10-05T18:10:09.645Z,97237.28
2022-10-05T18:12:36.035Z,97239.28
2022-10-05T18:15:05.661Z,97243.19
2022-10-05T18:17:39.965Z,97242.59
2022-10-05T18:20:26.990Z,97263.03
2022-10-05T18:22:54.666Z,97249.13
2022-10-05T18:25:21.099Z,97257.13
2022-10-05T18:27:50.655Z,97265.09
2022-10-05T18:30:21.346Z,97270.19
2022-10-05T18:33:11.205Z,97277.94
2022-10-05T18:35:44.137Z,97285.06
2022-10-05T18:38:29.253Z,97288.34
2022-10-05T18:40:59.226Z,97296.72
2022-10-05T18:43:34.753Z,97293.03
2022-10-05T18:46:15.031Z,97298.53
2022-10-05T18:49:05.035Z,97299.41
2022-10-05T18:51:31.455Z,97306.00
2022-10-05T18:53:57.877Z,97308.06
2022-10-05T18:56:24.413Z,97323.44
2022-10-05T18:59:09.608Z,97321.19
2022-10-05T19:01:36.085Z,97323.22
2022-10-05T19:04:04.938Z,97322.03
2022-10-05T19:06:44.544Z,97323.66
2022-10-05T19:09:20.372Z,97334.53
2022-10-05T19:11:51.186Z,97341.66
2022-10-05T19:14:23.490Z,97334.31
2022-10-05T19:16:49.884Z,97330.22
2022-10-05T19:19:35.143Z,97324.53
2022-10-05T19:22:04.548Z,97332.47
2022-10-05T19:24:41.658Z,97327.38
2022-10-05T19:27:14.213Z,97336.78
2022-10-05T19:29:40.619Z,97352.09
2022-10-05T19:32:16.591Z,97341.25
2022-10-05T19:34:43.038Z,97352.31
2022-10-05T19:37:31.012Z,97351.09
2022-10-05T19:39:59.003Z,97338.41
2022-10-05T19:42:36.619Z,97340.88
2022-10-05T19:45:21.880Z,97356.38
2022-10-05T19:47:54.455Z,97348.44
2022-10-05T19:50:26.373Z,97344.94
2022-10-05T19:53:02.468Z,97348.00
2022-10-05T19:55:32.804Z,97364.75
2022-10-05T19:58:02.166Z,97355.94
2022-10-05T20:00:33.007Z,97363.91
2022-10-05T20:03:08.473Z,97356.16
2022-10-05T20:05:34.946Z,97364.72
2022-10-05T20:08:01.384Z,97372.06
2022-10-05T20:10:29.628Z,97381.91
2022-10-05T20:12:59.819Z,97385.34
2022-10-05T20:15:45.972Z,97381.03
2022-10-05T20:18:50.095Z,97391.44
2022-10-05T20:21:35.677Z,97389.19
2022-10-05T20:24:08.198Z,97384.91
2022-10-05T20:26:57.551Z,97393.91
2022-10-05T20:29:23.964Z,97399.63
2022-10-05T20:31:50.536Z,97403.47
2022-10-05T20:34:18.062Z,97409.59
2022-10-05T20:36:45.967Z,97408.38
2022-10-05T20:39:15.610Z,97404.06
2022-10-05T20:41:42.716Z,97411.44
2022-10-05T20:44:09.424Z,97404.84
2022-10-05T20:46:35.929Z,97415.72
2022-10-05T20:49:02.758Z,97419.19
2022-10-05T20:51:29.172Z,97425.53
2022-10-05T20:53:56.122Z,97415.88
2022-10-05T20:56:23.439Z,97422.44
2022-10-05T20:58:50.243Z,97417.13
2022-10-05T21:01:19.976Z,97416.91
2022-10-05T21:03:46.718Z,97426.53
2022-10-05T21:06:13.128Z,97420.78
2022-10-05T21:08:39.590Z,97414.84
2022-10-05T21:11:09.056Z,97421.19
2022-10-05T21:13:36.032Z,97420.59
2022-10-05T21:16:02.554Z,97422.84
2022-10-05T21:18:29.542Z,97417.09
2022-10-05T21:20:59.942Z,97426.94
2022-10-05T21:23:29.441Z,97435.97
2022-10-05T21:25:55.853Z,97434.69
2022-10-05T21:28:22.486Z,97447.97
2022-10-05T21:30:48.970Z,97451.47
2022-10-05T21:33:15.371Z,97446.97
2022-10-05T21:35:41.804Z,97448.53
2022-10-05T21:38:08.204Z,97446.53
2022-10-05T21:40:34.641Z,97437.75
2022-10-05T21:43:01.112Z,97449.00
2022-10-05T21:45:28.279Z,97450.22
2022-10-05T21:47:54.763Z,97439.41
2022-10-05T21:50:21.179Z,97452.69
2022-10-05T21:52:47.601Z,97440.63
2022-10-05T21:55:14.014Z,97444.53
2022-10-05T21:57:41.251Z,97442.91
2022-10-05T22:00:08.023Z,97447.38
2022-10-05T22:02:34.527Z,97456.13
2022-10-05T22:05:01.079Z,97457.38
2022-10-05T22:07:29.021Z,97464.19
2022-10-05T22:09:55.548Z,97455.03
2022-10-05T22:12:22.171Z,97458.94
2022-10-05T22:14:48.716Z,97461.41
2022-10-05T22:17:17.439Z,97452.00
2022-10-05T22:19:43.879Z,97454.03
2022-10-05T22:22:12.021Z,97461.56
2022-10-05T22:24:38.565Z,97466.69
2022-10-05T22:27:05.009Z,97469.56
2022-10-05T22:29:31.416Z,97467.88
2022-10-05T22:31:57.970Z,97470.56
2022-10-05T22:34:24.424Z,97472.81
2022-10-05T22:36:50.856Z,97471.59
2022-10-05T22:39:17.570Z,97472.00
2022-10-05T22:41:44.026Z,97477.53
2022-10-05T22:44:10.496Z,97473.84
2022-10-05T22:46:36.939Z,97487.59
2022-10-05T22:49:03.361Z,97473.47
2022-10-05T22:51:29.779Z,97482.25
2022-10-05T22:53:56.187Z,97494.09
2022-10-05T22:56:22.662Z,97501.88
2022-10-05T22:58:49.773Z,97506.34
2022-10-05T23:01:17.197Z,97524.31
2022-10-05T23:03:43.825Z,97518.16
2022-10-05T23:06:14.736Z,97529.41
2022-10-05T23:08:41.686Z,97533.84
2022-10-05T23:11:09.745Z,97563.28
2022-10-05T23:13:36.182Z,97574.06
2022-10-05T23:16:15.772Z,97581.78
2022-10-05T23:18:42.399Z,97598.81
2022-10-05T23:21:09.136Z,97603.19
2022-10-05T23:23:36.346Z,97596.09
2022-10-05T23:26:03.042Z,97595.16
2022-10-05T23:28:29.844Z,97607.22
2022-10-05T23:31:00.497Z,97608.06
2022-10-05T23:33:27.136Z,97623.13
2022-10-05T23:36:00.685Z,97622.53
2022-10-05T23:38:27.497Z,97621.00
2022-10-05T23:40:54.156Z,97622.75
2022-10-05T23:43:20.743Z,97635.06
2022-10-05T23:45:47.205Z,97641.31
2022-10-05T23:48:13.667Z,97639.84
2022-10-05T23:50:40.283Z,97637.22
2022-10-05T23:53:06.865Z,97631.09
2022-10-05T23:55:33.324Z,97634.38
2022-10-05T23:57:59.782Z,97631.25
